sensor_id;sensor_type;location;lat;lon;timestamp;pressure;altitude;pressure_sealevel;temperature;humidity
27980;BME280;15315;50.836;4.430;2022-08-30T00:06:26;101423.81;;;24.11;44.42
27980;BME280;15315;50.836;4.430;2022-08-30T00:16:27;101441.84;;;23.75;45.87
27980;BME280;15315;50.836;4.430;2022-08-30T00:26:27;101432.22;;;23.55;46.73
27980;BME280;15315;50.836;4.430;2022-08-30T00:36:28;101429.06;;;23.82;46.34
27980;BME280;15315;50.836;4.430;2022-08-30T00:46:28;101425.06;;;23.92;46.21
27980;BME280;15315;50.836;4.430;2022-08-30T00:56:31;101417.69;;;23.85;46.66
27980;BME280;15315;50.836;4.430;2022-08-30T01:06:33;101415.47;;;23.80;47.22
27980;BME280;15315;50.836;4.430;2022-08-30T01:16:34;101412.78;;;22.83;49.92
27980;BME280;15315;50.836;4.430;2022-08-30T01:26:36;101426.06;;;23.28;48.76
27980;BME280;15315;50.836;4.430;2022-08-30T01:36:37;101421.38;;;23.69;47.75
27980;BME280;15315;50.836;4.430;2022-08-30T01:46:45;101412.75;;;23.72;47.57
27980;BME280;15315;50.836;4.430;2022-08-30T01:56:46;101411.44;;;23.04;49.09
27980;BME280;15315;50.836;4.430;2022-08-30T02:06:46;101411.44;;;23.20;48.78
27980;BME280;15315;50.836;4.430;2022-08-30T02:16:46;101400.22;;;22.65;50.46
27980;BME280;15315;50.836;4.430;2022-08-30T02:26:47;101387.16;;;22.75;50.30
27980;BME280;15315;50.836;4.430;2022-08-30T02:36:47;101384.16;;;22.28;51.49
27980;BME280;15315;50.836;4.430;2022-08-30T02:46:48;101366.00;;;21.59;53.94
27980;BME280;15315;50.836;4.430;2022-08-30T02:56:49;101371.97;;;21.81;53.42
27980;BME280;15315;50.836;4.430;2022-08-30T03:06:50;101373.66;;;22.15;52.37
27980;BME280;15315;50.836;4.430;2022-08-30T03:16:50;101364.56;;;22.23;51.99
27980;BME280;15315;50.836;4.430;2022-08-30T03:26:51;101368.00;;;22.25;52.18
27980;BME280;15315;50.836;4.430;2022-08-30T03:36:53;101367.84;;;22.35;52.30
27980;BME280;15315;50.836;4.430;2022-08-30T03:46:53;101364.88;;;21.70;53.93
27980;BME280;15315;50.836;4.430;2022-08-30T03:56:54;101369.03;;;21.82;53.56
27980;BME280;15315;50.836;4.430;2022-08-30T04:06:55;101371.13;;;21.96;53.27
27980;BME280;15315;50.836;4.430;2022-08-30T04:16:56;101371.75;;;21.23;55.76
27980;BME280;15315;50.836;4.430;2022-08-30T04:26:57;101368.81;;;21.76;53.63
27980;BME280;15315;50.836;4.430;2022-08-30T04:36:57;101369.59;;;21.09;56.67
27980;BME280;15315;50.836;4.430;2022-08-30T04:46:57;101375.78;;;21.11;56.07
27980;BME280;15315;50.836;4.430;2022-08-30T04:56:58;101396.94;;;21.44;55.54
27980;BME280;15315;50.836;4.430;2022-08-30T05:06:59;101391.13;;;21.21;55.42
27980;BME280;15315;50.836;4.430;2022-08-30T05:17:00;101385.53;;;21.56;54.50
27980;BME280;15315;50.836;4.430;2022-08-30T05:27:02;101406.44;;;21.49;54.93
27980;BME280;15315;50.836;4.430;2022-08-30T05:37:03;101396.66;;;21.29;55.93
27980;BME280;15315;50.836;4.430;2022-08-30T05:47:03;101402.66;;;21.07;56.59
27980;BME280;15315;50.836;4.430;2022-08-30T05:57:04;101398.38;;;21.82;54.40
27980;BME280;15315;50.836;4.430;2022-08-30T06:07:04;101398.19;;;21.49;55.96
27980;BME280;15315;50.836;4.430;2022-08-30T06:17:05;101405.97;;;22.21;53.72
27980;BME280;15315;50.836;4.430;2022-08-30T06:27:06;101405.75;;;22.89;51.72
27980;BME280;15315;50.836;4.430;2022-08-30T06:37:06;101397.81;;;23.34;50.14
27980;BME280;15315;50.836;4.430;2022-08-30T06:47:06;101401.91;;;22.42;52.56
27980;BME280;15315;50.836;4.430;2022-08-30T06:57:07;101399.88;;;23.32;50.36
27980;BME280;15315;50.836;4.430;2022-08-30T07:07:09;101402.31;;;22.87;51.30
27980;BME280;15315;50.836;4.430;2022-08-30T07:17:10;101398.50;;;23.61;50.07
27980;BME280;15315;50.836;4.430;2022-08-30T07:27:29;101396.50;;;23.85;49.14
27980;BME280;15315;50.836;4.430;2022-08-30T07:37:30;101401.63;;;23.96;48.15
27980;BME280;15315;50.836;4.430;2022-08-30T07:47:31;101392.00;;;24.31;47.24
27980;BME280;15315;50.836;4.430;2022-08-30T07:57:31;101389.53;;;24.14;47.66
27980;BME280;15315;50.836;4.430;2022-08-30T08:07:34;101404.91;;;24.08;46.93
27980;BME280;15315;50.836;4.430;2022-08-30T08:17:34;101401.06;;;24.48;45.85
27980;BME280;15315;50.836;4.430;2022-08-30T08:27:34;101400.63;;;23.97;46.64
27980;BME280;15315;50.836;4.430;2022-08-30T08:37:35;101403.31;;;24.44;45.51
27980;BME280;15315;50.836;4.430;2022-08-30T08:47:43;101392.06;;;24.85;44.90
27980;BME280;15315;50.836;4.430;2022-08-30T08:57:49;101401.75;;;24.95;44.51
27980;BME280;15315;50.836;4.430;2022-08-30T09:07:57;101400.00;;;25.02;44.00
27980;BME280;15315;50.836;4.430;2022-08-30T09:18:02;101387.59;;;25.21;43.90
27980;BME280;15315;50.836;4.430;2022-08-30T09:28:11;101388.88;;;25.48;43.53
27980;BME280;15315;50.836;4.430;2022-08-30T09:38:31;101401.78;;;25.99;41.94
27980;BME280;15315;50.836;4.430;2022-08-30T09:48:36;101395.03;;;25.87;42.65
27980;BME280;15315;50.836;4.430;2022-08-30T10:09:19;101394.09;;;26.45;40.04
27980;BME280;15315;50.836;4.430;2022-08-30T10:29:28;101393.13;;;27.44;37.24
27980;BME280;15315;50.836;4.430;2022-08-30T10:39:40;101388.72;;;27.22;38.12
27980;BME280;15315;50.836;4.430;2022-08-30T10:49:46;101372.66;;;28.00;37.47
27980;BME280;15315;50.836;4.430;2022-08-30T10:59:55;101372.34;;;27.48;37.98
27980;BME280;15315;50.836;4.430;2022-08-30T11:10:14;101362.22;;;28.02;37.00
27980;BME280;15315;50.836;4.430;2022-08-30T11:40:50;101354.41;;;29.06;35.72
27980;BME280;15315;50.836;4.430;2022-08-30T11:51:30;101356.06;;;28.87;35.83
27980;BME280;15315;50.836;4.430;2022-08-30T12:01:36;101335.97;;;29.64;34.28
27980;BME280;15315;50.836;4.430;2022-08-30T12:22:01;101338.97;;;29.55;34.15
27980;BME280;15315;50.836;4.430;2022-08-30T12:32:15;101333.13;;;29.77;33.91
27980;BME280;15315;50.836;4.430;2022-08-30T12:42:27;101328.88;;;29.74;34.07
27980;BME280;15315;50.836;4.430;2022-08-30T12:52:30;101318.81;;;29.80;33.64
27980;BME280;15315;50.836;4.430;2022-08-30T13:02:48;101298.63;;;29.27;34.54
27980;BME280;15315;50.836;4.430;2022-08-30T13:13:00;101301.78;;;29.43;34.53
27980;BME280;15315;50.836;4.430;2022-08-30T13:23:08;101292.84;;;28.56;35.27
27980;BME280;15315;50.836;4.430;2022-08-30T13:33:09;101296.06;;;29.25;34.86
27980;BME280;15315;50.836;4.430;2022-08-30T13:43:10;101301.19;;;29.15;34.38
27980;BME280;15315;50.836;4.430;2022-08-30T13:53:11;101288.75;;;29.44;34.63
27980;BME280;15315;50.836;4.430;2022-08-30T14:03:14;101289.75;;;29.69;34.04
27980;BME280;15315;50.836;4.430;2022-08-30T14:13:15;101295.88;;;30.66;33.01
27980;BME280;15315;50.836;4.430;2022-08-30T14:23:15;101294.81;;;30.92;32.18
27980;BME280;15315;50.836;4.430;2022-08-30T14:33:15;101285.66;;;30.60;32.20
27980;BME280;15315;50.836;4.430;2022-08-30T14:43:16;101288.72;;;30.14;33.11
27980;BME280;15315;50.836;4.430;2022-08-30T14:53:16;101287.16;;;30.88;32.32
27980;BME280;15315;50.836;4.430;2022-08-30T15:03:17;101290.28;;;30.42;33.00
27980;BME280;15315;50.836;4.430;2022-08-30T15:13:18;101279.94;;;30.17;32.91
27980;BME280;15315;50.836;4.430;2022-08-30T15:23:18;101270.63;;;29.92;32.75
27980;BME280;15315;50.836;4.430;2022-08-30T15:33:19;101267.75;;;29.68;33.14
27980;BME280;15315;50.836;4.430;2022-08-30T15:43:19;101263.28;;;30.73;31.91
27980;BME280;15315;50.836;4.430;2022-08-30T15:53:19;101255.66;;;30.62;32.07
27980;BME280;15315;50.836;4.430;2022-08-30T16:03:20;101254.44;;;30.21;32.01
27980;BME280;15315;50.836;4.430;2022-08-30T16:13:20;101242.31;;;30.71;31.01
27980;BME280;15315;50.836;4.430;2022-08-30T16:23:21;101254.59;;;30.63;31.49
27980;BME280;15315;50.836;4.430;2022-08-30T16:33:21;101260.16;;;30.63;31.91
27980;BME280;15315;50.836;4.430;2022-08-30T16:43:22;101261.75;;;30.46;31.57
27980;BME280;15315;50.836;4.430;2022-08-30T16:53:24;101262.25;;;30.37;31.83
27980;BME280;15315;50.836;4.430;2022-08-30T17:03:24;101265.88;;;30.68;31.26
27980;BME280;15315;50.836;4.430;2022-08-30T17:13:25;101262.00;;;29.63;32.08
27980;BME280;15315;50.836;4.430;2022-08-30T17:23:25;101267.22;;;29.00;32.84
27980;BME280;15315;50.836;4.430;2022-08-30T17:33:26;101283.88;;;29.00;33.02
27980;BME280;15315;50.836;4.430;2022-08-30T17:43:26;101289.63;;;29.25;32.24
27980;BME280;15315;50.836;4.430;2022-08-30T17:53:27;101304.22;;;28.07;33.53
27980;BME280;15315;50.836;4.430;2022-08-30T18:03:28;101322.13;;;27.64;33.65
27980;BME280;15315;50.836;4.430;2022-08-30T18:13:29;101327.00;;;27.96;33.27
27980;BME280;15315;50.836;4.430;2022-08-30T18:23:29;101333.59;;;27.54;33.23
27980;BME280;15315;50.836;4.430;2022-08-30T18:33:30;101350.69;;;27.64;33.24
27980;BME280;15315;50.836;4.430;2022-08-30T18:43:30;101358.53;;;27.61;33.23
27980;BME280;15315;50.836;4.430;2022-08-30T18:53:30;101371.13;;;26.30;34.45
27980;BME280;15315;50.836;4.430;2022-08-30T19:03:32;101382.06;;;26.74;33.98
27980;BME280;15315;50.836;4.430;2022-08-30T19:13:32;101395.34;;;26.99;33.42
27980;BME280;15315;50.836;4.430;2022-08-30T19:23:34;101392.09;;;27.17;33.12
27980;BME280;15315;50.836;4.430;2022-08-30T19:33:36;101410.88;;;27.00;33.40
27980;BME280;15315;50.836;4.430;2022-08-30T19:43:36;101409.53;;;27.18;32.72
27980;BME280;15315;50.836;4.430;2022-08-30T19:53:37;101409.00;;;26.15;34.29
27980;BME280;15315;50.836;4.430;2022-08-30T20:03:37;101415.31;;;26.09;34.57
27980;BME280;15315;50.836;4.430;2022-08-30T20:13:38;101424.31;;;26.32;34.14
27980;BME280;15315;50.836;4.430;2022-08-30T20:23:39;101427.56;;;26.50;33.97
27980;BME280;15315;50.836;4.430;2022-08-30T20:33:41;101435.81;;;26.00;34.16
27980;BME280;15315;50.836;4.430;2022-08-30T20:43:43;101429.50;;;26.06;34.40
27980;BME280;15315;50.836;4.430;2022-08-30T20:53:44;101433.50;;;25.74;34.77
27980;BME280;15315;50.836;4.430;2022-08-30T21:03:45;101433.34;;;26.05;34.75
27980;BME280;15315;50.836;4.430;2022-08-30T21:13:48;101437.28;;;25.58;35.41
27980;BME280;15315;50.836;4.430;2022-08-30T21:23:49;101437.88;;;25.68;35.46
27980;BME280;15315;50.836;4.430;2022-08-30T21:33:51;101432.94;;;25.41;35.90
27980;BME280;15315;50.836;4.430;2022-08-30T21:44:00;101427.97;;;24.77;36.57
27980;BME280;15315;50.836;4.430;2022-08-30T21:54:01;101443.38;;;25.54;35.54
27980;BME280;15315;50.836;4.430;2022-08-30T22:04:05;101451.38;;;25.26;35.54
27980;BME280;15315;50.836;4.430;2022-08-30T22:14:06;101443.84;;;24.97;35.92
27980;BME280;15315;50.836;4.430;2022-08-30T22:24:08;101447.94;;;24.48;36.63
27980;BME280;15315;50.836;4.430;2022-08-30T22:34:08;101450.66;;;24.87;36.10
27980;BME280;15315;50.836;4.430;2022-08-30T22:44:09;101447.56;;;24.51;36.83
27980;BME280;15315;50.836;4.430;2022-08-30T22:54:10;101440.47;;;24.26;36.97
27980;BME280;15315;50.836;4.430;2022-08-30T23:04:11;101445.28;;;24.24;37.43
27980;BME280;15315;50.836;4.430;2022-08-30T23:14:12;101445.09;;;23.70;38.27
27980;BME280;15315;50.836;4.430;2022-08-30T23:24:12;101440.31;;;23.56;38.66
27980;BME280;15315;50.836;4.430;2022-08-30T23:34:31;101451.97;;;23.74;38.17
27980;BME280;15315;50.836;4.430;2022-08-30T23:44:50;101449.25;;;23.58;38.49
27980;BME280;15315;50.836;4.430;2022-08-30T23:55:09;101449.75;;;23.70;38.35
